sensor_id;sensor_type;location;lat;lon;timestamp;pressure;altitude;pressure_sealevel;temperature;humidity
65685;BME280;52405;50.844;-1.062;2023-01-04T00:01:43;101773.31;;;13.25;78.31
65685;BME280;52405;50.844;-1.062;2023-01-04T00:04:09;101773.34;;;13.27;77.49
65685;BME280;52405;50.844;-1.062;2023-01-04T00:06:35;101750.47;;;13.20;78.30
65685;BME280;52405;50.844;-1.062;2023-01-04T00:09:02;101761.16;;;13.26;77.49
65685;BME280;52405;50.844;-1.062;2023-01-04T00:11:28;101745.19;;;13.18;77.58
65685;BME280;52405;50.844;-1.062;2023-01-04T00:13:58;101753.31;;;13.26;78.07
65685;BME280;52405;50.844;-1.062;2023-01-04T00:16:29;101754.13;;;13.25;77.96
65685;BME280;52405;50.844;-1.062;2023-01-04T00:18:55;101739.25;;;13.22;77.86
65685;BME280;52405;50.844;-1.062;2023-01-04T00:21:23;101749.75;;;13.24;78.15
65685;BME280;52405;50.844;-1.062;2023-01-04T00:23:52;101741.06;;;13.23;78.10
65685;BME280;52405;50.844;-1.062;2023-01-04T00:26:22;101729.72;;;13.23;78.03
65685;BME280;52405;50.844;-1.062;2023-01-04T00:28:53;101726.28;;;13.24;77.99
65685;BME280;52405;50.844;-1.062;2023-01-04T00:31:19;101726.16;;;13.21;77.84
65685;BME280;52405;50.844;-1.062;2023-01-04T00:33:47;101723.75;;;13.25;78.13
65685;BME280;52405;50.844;-1.062;2023-01-04T00:36:13;101714.13;;;13.24;78.13
65685;BME280;52405;50.844;-1.062;2023-01-04T00:38:42;101728.91;;;13.24;78.08
65685;BME280;52405;50.844;-1.062;2023-01-04T00:41:09;101735.88;;;13.25;78.18
65685;BME280;52405;50.844;-1.062;2023-01-04T00:43:35;101733.22;;;13.23;77.83
65685;BME280;52405;50.844;-1.062;2023-01-04T00:46:00;101720.81;;;13.18;78.00
65685;BME280;52405;50.844;-1.062;2023-01-04T00:48:29;101728.13;;;13.26;78.12
65685;BME280;52405;50.844;-1.062;2023-01-04T00:50:55;101711.22;;;13.17;77.46
65685;BME280;52405;50.844;-1.062;2023-01-04T00:53:20;101727.31;;;13.27;77.97
65685;BME280;52405;50.844;-1.062;2023-01-04T00:55:46;101731.59;;;13.27;77.43
65685;BME280;52405;50.844;-1.062;2023-01-04T00:58:12;101720.06;;;13.20;77.88
65685;BME280;52405;50.844;-1.062;2023-01-04T01:00:38;101728.13;;;13.26;78.06
65685;BME280;52405;50.844;-1.062;2023-01-04T01:03:04;101722.91;;;13.26;77.32
65685;BME280;52405;50.844;-1.062;2023-01-04T01:05:31;101721.19;;;13.27;77.42
65685;BME280;52405;50.844;-1.062;2023-01-04T01:07:57;101726.47;;;13.28;77.56
65685;BME280;52405;50.844;-1.062;2023-01-04T01:10:24;101721.25;;;13.28;78.01
65685;BME280;52405;50.844;-1.062;2023-01-04T01:12:50;101727.38;;;13.29;77.94
65685;BME280;52405;50.844;-1.062;2023-01-04T01:15:20;101720.34;;;13.28;77.40
65685;BME280;52405;50.844;-1.062;2023-01-04T01:17:45;101711.72;;;13.29;77.89
65685;BME280;52405;50.844;-1.062;2023-01-04T01:20:13;101713.25;;;13.24;77.58
65685;BME280;52405;50.844;-1.062;2023-01-04T01:22:39;101727.38;;;13.29;77.94
65685;BME280;52405;50.844;-1.062;2023-01-04T01:25:05;101735.19;;;13.29;77.10
65685;BME280;52405;50.844;-1.062;2023-01-04T01:27:30;101730.97;;;13.31;77.19
65685;BME280;52405;50.844;-1.062;2023-01-04T01:29:56;101720.59;;;13.33;77.78
65685;BME280;52405;50.844;-1.062;2023-01-04T01:32:21;101719.75;;;13.34;77.71
65685;BME280;52405;50.844;-1.062;2023-01-04T01:34:47;101724.09;;;13.33;77.56
65685;BME280;52405;50.844;-1.062;2023-01-04T01:37:12;101720.63;;;13.34;77.10
65685;BME280;52405;50.844;-1.062;2023-01-04T01:39:38;101709.31;;;13.34;77.65
65685;BME280;52405;50.844;-1.062;2023-01-04T01:42:04;101717.22;;;13.35;77.19
65685;BME280;52405;50.844;-1.062;2023-01-04T01:47:25;101721.31;;;13.30;77.12
65685;BME280;52405;50.844;-1.062;2023-01-04T01:49:53;101733.63;;;13.33;77.32
65685;BME280;52405;50.844;-1.062;2023-01-04T01:52:25;101724.09;;;13.33;77.79
65685;BME280;52405;50.844;-1.062;2023-01-04T01:54:56;101731.91;;;13.33;77.28
65685;BME280;52405;50.844;-1.062;2023-01-04T01:57:28;101724.84;;;13.30;77.42
65685;BME280;52405;50.844;-1.062;2023-01-04T01:59:56;101728.53;;;13.36;77.81
65685;BME280;52405;50.844;-1.062;2023-01-04T02:02:25;101712.53;;;13.28;78.12
65685;BME280;52405;50.844;-1.062;2023-01-04T02:04:52;101712.53;;;13.28;77.77
65685;BME280;52405;50.844;-1.062;2023-01-04T02:07:24;101721.41;;;13.32;77.55
65685;BME280;52405;50.844;-1.062;2023-01-04T02:09:50;101736.25;;;13.33;77.68
65685;BME280;52405;50.844;-1.062;2023-01-04T02:12:16;101720.28;;;13.26;77.92
65685;BME280;52405;50.844;-1.062;2023-01-04T02:14:46;101725.84;;;13.34;78.45
65685;BME280;52405;50.844;-1.062;2023-01-04T02:17:20;101723.84;;;13.28;77.96
65685;BME280;52405;50.844;-1.062;2023-01-04T02:20:06;101731.69;;;13.28;78.53
65685;BME280;52405;50.844;-1.062;2023-01-04T02:23:00;101724.56;;;13.24;78.34
65685;BME280;52405;50.844;-1.062;2023-01-04T02:25:47;101728.69;;;13.19;78.45
65685;BME280;52405;50.844;-1.062;2023-01-04T02:37:19;101711.78;;;13.09;79.72
65685;BME280;52405;50.844;-1.062;2023-01-04T02:40:46;101709.03;;;13.06;79.15
65685;BME280;52405;50.844;-1.062;2023-01-04T02:43:29;101709.03;;;13.06;79.28
65685;BME280;52405;50.844;-1.062;2023-01-04T02:46:25;101681.19;;;13.05;79.96
65685;BME280;52405;50.844;-1.062;2023-01-04T02:48:58;101658.75;;;12.88;80.14
65685;BME280;52405;50.844;-1.062;2023-01-04T02:51:42;101709.03;;;13.06;79.71
65685;BME280;52405;50.844;-1.062;2023-01-04T02:54:15;101690.78;;;13.06;80.29
65685;BME280;52405;50.844;-1.062;2023-01-04T02:59:31;101676.06;;;13.07;80.24
65685;BME280;52405;50.844;-1.062;2023-01-04T03:02:12;101689.03;;;13.05;80.88
65685;BME280;52405;50.844;-1.062;2023-01-04T03:13:33;101675.06;;;13.05;81.31
65685;BME280;52405;50.844;-1.062;2023-01-04T03:16:14;101677.69;;;13.05;80.71
65685;BME280;52405;50.844;-1.062;2023-01-04T03:18:49;101663.75;;;13.04;81.40
65685;BME280;52405;50.844;-1.062;2023-01-04T03:21:17;101676.94;;;13.07;81.46
65685;BME280;52405;50.844;-1.062;2023-01-04T03:23:48;101664.78;;;13.08;81.33
65685;BME280;52405;50.844;-1.062;2023-01-04T03:26:40;101658.75;;;13.09;80.89
65685;BME280;52405;50.844;-1.062;2023-01-04T03:29:36;101651.66;;;13.06;81.61
65685;BME280;52405;50.844;-1.062;2023-01-04T03:32:28;101646.59;;;13.09;81.86
65685;BME280;52405;50.844;-1.062;2023-01-04T03:35:13;101650.13;;;13.11;81.44
65685;BME280;52405;50.844;-1.062;2023-01-04T03:41:02;101649.25;;;13.11;81.24
65685;BME280;52405;50.844;-1.062;2023-01-04T03:44:01;101639.19;;;12.99;81.59
65685;BME280;52405;50.844;-1.062;2023-01-04T03:46:55;101635.13;;;13.06;81.93
65685;BME280;52405;50.844;-1.062;2023-01-04T03:49:51;101624.06;;;13.11;81.57
65685;BME280;52405;50.844;-1.062;2023-01-04T03:52:23;101607.03;;;12.99;81.45
65685;BME280;52405;50.844;-1.062;2023-01-04T03:54:55;101616.94;;;13.07;81.59
65685;BME280;52405;50.844;-1.062;2023-01-04T03:57:24;101639.91;;;13.16;81.50
65685;BME280;52405;50.844;-1.062;2023-01-04T03:59:52;101619.91;;;13.17;81.28
65685;BME280;52405;50.844;-1.062;2023-01-04T04:02:24;101643.53;;;13.20;81.86
65685;BME280;52405;50.844;-1.062;2023-01-04T04:04:52;101635.72;;;13.21;81.48
65685;BME280;52405;50.844;-1.062;2023-01-04T04:07:36;101653.25;;;13.24;81.59
65685;BME280;52405;50.844;-1.062;2023-01-04T04:10:21;101635.81;;;13.23;81.57
65685;BME280;52405;50.844;-1.062;2023-01-04T04:12:51;101638.53;;;13.26;81.88
65685;BME280;52405;50.844;-1.062;2023-01-04T04:15:16;101616.44;;;13.16;80.97
65685;BME280;52405;50.844;-1.062;2023-01-04T04:17:42;101631.38;;;13.20;81.32
65685;BME280;52405;50.844;-1.062;2023-01-04T04:20:09;101638.66;;;13.29;81.19
65685;BME280;52405;50.844;-1.062;2023-01-04T04:22:34;101636.00;;;13.27;81.14
65685;BME280;52405;50.844;-1.062;2023-01-04T04:25:00;101644.94;;;13.33;81.07
65685;BME280;52405;50.844;-1.062;2023-01-04T04:27:26;101637.13;;;13.34;80.79
65685;BME280;52405;50.844;-1.062;2023-01-04T04:29:51;101631.03;;;13.34;80.89
65685;BME280;52405;50.844;-1.062;2023-01-04T04:32:17;101636.38;;;13.37;81.29
65685;BME280;52405;50.844;-1.062;2023-01-04T04:34:42;101642.34;;;13.34;81.13
65685;BME280;52405;50.844;-1.062;2023-01-04T04:37:10;101651.19;;;13.38;80.65
65685;BME280;52405;50.844;-1.062;2023-01-04T04:39:35;101656.47;;;13.39;80.90
65685;BME280;52405;50.844;-1.062;2023-01-04T04:42:01;101658.22;;;13.39;80.99
65685;BME280;52405;50.844;-1.062;2023-01-04T04:44:29;101650.44;;;13.40;80.43
65685;BME280;52405;50.844;-1.062;2023-01-04T04:46:57;101640.00;;;13.40;80.80
65685;BME280;52405;50.844;-1.062;2023-01-04T04:49:24;101617.47;;;13.42;80.38
65685;BME280;52405;50.844;-1.062;2023-01-04T04:51:50;101607.69;;;13.37;80.46
65685;BME280;52405;50.844;-1.062;2023-01-04T04:54:20;101630.50;;;13.42;80.81
65685;BME280;52405;50.844;-1.062;2023-01-04T04:56:48;101629.63;;;13.42;80.58
65685;BME280;52405;50.844;-1.062;2023-01-04T04:59:14;101619.19;;;13.42;81.14
65685;BME280;52405;50.844;-1.062;2023-01-04T05:01:40;101625.22;;;13.41;81.12
65685;BME280;52405;50.844;-1.062;2023-01-04T05:04:06;101632.25;;;13.42;80.87
65685;BME280;52405;50.844;-1.062;2023-01-04T05:06:35;101640.94;;;13.42;81.26
65685;BME280;52405;50.844;-1.062;2023-01-04T05:09:03;101624.44;;;13.43;80.95
65685;BME280;52405;50.844;-1.062;2023-01-04T05:11:28;101633.06;;;13.41;81.19
65685;BME280;52405;50.844;-1.062;2023-01-04T05:14:12;101628.72;;;13.41;81.19
65685;BME280;52405;50.844;-1.062;2023-01-04T05:16:38;101615.59;;;13.40;81.37
65685;BME280;52405;50.844;-1.062;2023-01-04T05:19:06;101617.34;;;13.39;81.36
65685;BME280;52405;50.844;-1.062;2023-01-04T05:21:33;101616.31;;;13.36;81.08
65685;BME280;52405;50.844;-1.062;2023-01-04T05:23:59;101620.72;;;13.37;81.55
65685;BME280;52405;50.844;-1.062;2023-01-04T05:26:24;101623.22;;;13.34;81.05
65685;BME280;52405;50.844;-1.062;2023-01-04T05:28:50;101615.25;;;13.30;81.36
65685;BME280;52405;50.844;-1.062;2023-01-04T05:31:15;101630.00;;;13.30;81.79
65685;BME280;52405;50.844;-1.062;2023-01-04T05:33:43;101601.66;;;13.17;80.99
65685;BME280;52405;50.844;-1.062;2023-01-04T05:36:08;101624.66;;;13.27;81.43
65685;BME280;52405;50.844;-1.062;2023-01-04T05:38:34;101607.94;;;13.22;81.51
65685;BME280;52405;50.844;-1.062;2023-01-04T05:40:59;101614.13;;;13.24;81.70
65685;BME280;52405;50.844;-1.062;2023-01-04T05:43:25;101600.94;;;13.21;82.33
65685;BME280;52405;50.844;-1.062;2023-01-04T05:45:55;101602.59;;;13.19;81.91
65685;BME280;52405;50.844;-1.062;2023-01-04T05:48:22;101602.47;;;13.16;81.68
65685;BME280;52405;50.844;-1.062;2023-01-04T05:50:48;101595.31;;;13.10;82.44
65685;BME280;52405;50.844;-1.062;2023-01-04T05:53:16;101618.31;;;13.20;82.64
65685;BME280;52405;50.844;-1.062;2023-01-04T05:55:47;101605.28;;;13.20;81.85
65685;BME280;52405;50.844;-1.062;2023-01-04T05:58:14;101615.84;;;13.23;82.47
65685;BME280;52405;50.844;-1.062;2023-01-04T06:00:42;101613.22;;;13.23;82.04
65685;BME280;52405;50.844;-1.062;2023-01-04T06:03:10;101608.84;;;13.22;82.30
65685;BME280;52405;50.844;-1.062;2023-01-04T06:05:36;101604.56;;;13.24;82.69
65685;BME280;52405;50.844;-1.062;2023-01-04T06:08:01;101614.06;;;13.22;82.42
65685;BME280;52405;50.844;-1.062;2023-01-04T06:10:29;101615.13;;;13.27;82.33
65685;BME280;52405;50.844;-1.062;2023-01-04T06:12:54;101610.78;;;13.28;82.07
65685;BME280;52405;50.844;-1.062;2023-01-04T06:15:20;101601.22;;;13.28;82.66
65685;BME280;52405;50.844;-1.062;2023-01-04T06:17:45;101599.47;;;13.27;81.95
65685;BME280;52405;50.844;-1.062;2023-01-04T06:20:11;101619.41;;;13.25;82.36
65685;BME280;52405;50.844;-1.062;2023-01-04T06:22:37;101617.81;;;13.29;82.66
65685;BME280;52405;50.844;-1.062;2023-01-04T06:25:05;101613.25;;;13.25;82.45
65685;BME280;52405;50.844;-1.062;2023-01-04T06:27:30;101614.44;;;13.32;82.66
65685;BME280;52405;50.844;-1.062;2023-01-04T06:29:58;101598.78;;;13.32;82.24
65685;BME280;52405;50.844;-1.062;2023-01-04T06:32:23;101601.13;;;13.25;82.33
65685;BME280;52405;50.844;-1.062;2023-01-04T06:34:49;101617.88;;;13.30;82.48
65685;BME280;52405;50.844;-1.062;2023-01-04T06:37:14;101615.38;;;13.34;82.29
65685;BME280;52405;50.844;-1.062;2023-01-04T06:39:42;101626.69;;;13.34;82.47
65685;BME280;52405;50.844;-1.062;2023-01-04T06:42:07;101610.16;;;13.34;82.58
65685;BME280;52405;50.844;-1.062;2023-01-04T06:44:58;101608.41;;;13.33;82.57
65685;BME280;52405;50.844;-1.062;2023-01-04T06:47:25;101602.97;;;13.28;82.54
65685;BME280;52405;50.844;-1.062;2023-01-04T06:49:51;101611.09;;;13.36;82.24
65685;BME280;52405;50.844;-1.062;2023-01-04T06:52:17;101613.78;;;13.37;82.38
65685;BME280;52405;50.844;-1.062;2023-01-04T06:54:42;101617.19;;;13.35;82.64
65685;BME280;52405;50.844;-1.062;2023-01-04T06:57:10;101624.16;;;13.36;82.61
65685;BME280;52405;50.844;-1.062;2023-01-04T06:59:38;101632.91;;;13.36;83.03
65685;BME280;52405;50.844;-1.062;2023-01-04T07:02:04;101632.91;;;13.36;83.11
65685;BME280;52405;50.844;-1.062;2023-01-04T07:04:29;101631.09;;;13.35;82.33
65685;BME280;52405;50.844;-1.062;2023-01-04T07:06:55;101631.03;;;13.34;82.71
65685;BME280;52405;50.844;-1.062;2023-01-04T07:09:25;101632.59;;;13.30;82.68
65685;BME280;52405;50.844;-1.062;2023-01-04T07:11:50;101635.38;;;13.33;83.13
65685;BME280;52405;50.844;-1.062;2023-01-04T07:14:16;101630.16;;;13.33;82.29
65685;BME280;52405;50.844;-1.062;2023-01-04T07:16:41;101638.72;;;13.30;82.87
65685;BME280;52405;50.844;-1.062;2023-01-04T07:19:09;101645.75;;;13.32;82.91
65685;BME280;52405;50.844;-1.062;2023-01-04T07:21:35;101652.69;;;13.31;82.64
65685;BME280;52405;50.844;-1.062;2023-01-04T07:24:00;101651.72;;;13.29;82.46
65685;BME280;52405;50.844;-1.062;2023-01-04T07:26:25;101652.41;;;13.25;82.57
65685;BME280;52405;50.844;-1.062;2023-01-04T07:28:51;101638.53;;;13.26;82.90
65685;BME280;52405;50.844;-1.062;2023-01-04T07:31:35;101662.00;;;13.26;82.68
65685;BME280;52405;50.844;-1.062;2023-01-04T07:34:00;101668.00;;;13.23;82.28
65685;BME280;52405;50.844;-1.062;2023-01-04T07:36:26;101659.28;;;13.23;82.57
65685;BME280;52405;50.844;-1.062;2023-01-04T07:38:54;101654.06;;;13.23;82.41
65685;BME280;52405;50.844;-1.062;2023-01-04T07:41:22;101654.06;;;13.23;82.21
65685;BME280;52405;50.844;-1.062;2023-01-04T07:43:50;101654.91;;;13.22;82.83
65685;BME280;52405;50.844;-1.062;2023-01-04T07:46:15;101642.63;;;13.19;82.57
65685;BME280;52405;50.844;-1.062;2023-01-04T07:48:41;101644.41;;;13.20;82.29
65685;BME280;52405;50.844;-1.062;2023-01-04T07:51:06;101655.72;;;13.21;82.51
65685;BME280;52405;50.844;-1.062;2023-01-04T07:53:32;101667.94;;;13.22;82.11
65685;BME280;52405;50.844;-1.062;2023-01-04T07:56:00;101662.78;;;13.23;82.29
65685;BME280;52405;50.844;-1.062;2023-01-04T07:58:30;101663.75;;;13.25;82.28
65685;BME280;52405;50.844;-1.062;2023-01-04T08:01:07;101669.84;;;13.26;82.88
65685;BME280;52405;50.844;-1.062;2023-01-04T08:03:35;101663.75;;;13.25;82.26
65685;BME280;52405;50.844;-1.062;2023-01-04T08:06:09;101669.91;;;13.27;82.32
65685;BME280;52405;50.844;-1.062;2023-01-04T08:08:34;101669.06;;;13.28;83.08
65685;BME280;52405;50.844;-1.062;2023-01-04T08:11:06;101669.00;;;13.27;82.79
65685;BME280;52405;50.844;-1.062;2023-01-04T08:13:32;101695.16;;;13.28;82.35
65685;BME280;52405;50.844;-1.062;2023-01-04T08:15:58;101694.44;;;13.31;82.10
65685;BME280;52405;50.844;-1.062;2023-01-04T08:18:23;101675.78;;;13.22;82.39
65685;BME280;52405;50.844;-1.062;2023-01-04T08:20:49;101699.66;;;13.31;82.82
65685;BME280;52405;50.844;-1.062;2023-01-04T08:23:15;101708.38;;;13.32;82.46
65685;BME280;52405;50.844;-1.062;2023-01-04T08:25:43;101702.25;;;13.31;82.36
65685;BME280;52405;50.844;-1.062;2023-01-04T08:28:11;101693.25;;;13.24;82.26
65685;BME280;52405;50.844;-1.062;2023-01-04T08:30:36;101709.31;;;13.34;82.23
65685;BME280;52405;50.844;-1.062;2023-01-04T08:33:11;101702.34;;;13.33;81.95
65685;BME280;52405;50.844;-1.062;2023-01-04T08:35:37;101690.56;;;13.23;82.13
65685;BME280;52405;50.844;-1.062;2023-01-04T08:38:02;101719.69;;;13.32;82.05
65685;BME280;52405;50.844;-1.062;2023-01-04T08:40:28;101717.81;;;13.29;82.57
65685;BME280;52405;50.844;-1.062;2023-01-04T08:42:56;101720.53;;;13.31;82.02
65685;BME280;52405;50.844;-1.062;2023-01-04T08:45:21;101678.91;;;13.13;82.07
65685;BME280;52405;50.844;-1.062;2023-01-04T08:47:52;101719.75;;;13.34;82.54
65685;BME280;52405;50.844;-1.062;2023-01-04T08:50:17;101724.22;;;13.36;81.84
65685;BME280;52405;50.844;-1.062;2023-01-04T08:52:44;101732.94;;;13.37;81.57
65685;BME280;52405;50.844;-1.062;2023-01-04T08:55:10;101738.22;;;13.38;82.18
65685;BME280;52405;50.844;-1.062;2023-01-04T08:57:35;101742.53;;;13.38;81.87
65685;BME280;52405;50.844;-1.062;2023-01-04T09:00:02;101745.19;;;13.39;82.00
65685;BME280;52405;50.844;-1.062;2023-01-04T09:02:28;101743.31;;;13.35;81.92
65685;BME280;52405;50.844;-1.062;2023-01-04T09:04:54;101737.50;;;13.42;81.86
65685;BME280;52405;50.844;-1.062;2023-01-04T09:07:24;101742.53;;;13.38;82.16
65685;BME280;52405;50.844;-1.062;2023-01-04T09:09:52;101743.44;;;13.38;81.61
65685;BME280;52405;50.844;-1.062;2023-01-04T09:12:17;101758.44;;;13.44;81.26
65685;BME280;52405;50.844;-1.062;2023-01-04T09:14:43;101765.25;;;13.40;81.32
65685;BME280;52405;50.844;-1.062;2023-01-04T09:17:09;101768.88;;;13.44;81.08
65685;BME280;52405;50.844;-1.062;2023-01-04T09:19:34;101772.44;;;13.46;81.28
65685;BME280;52405;50.844;-1.062;2023-01-04T09:22:00;101780.28;;;13.46;80.93
65685;BME280;52405;50.844;-1.062;2023-01-04T09:24:28;101796.00;;;13.47;80.87
65685;BME280;52405;50.844;-1.062;2023-01-04T09:26:53;101791.59;;;13.46;81.64
65685;BME280;52405;50.844;-1.062;2023-01-04T09:29:19;101800.38;;;13.48;80.45
65685;BME280;52405;50.844;-1.062;2023-01-04T09:31:45;101796.09;;;13.50;80.65
65685;BME280;52405;50.844;-1.062;2023-01-04T09:34:11;101792.38;;;13.44;80.57
65685;BME280;52405;50.844;-1.062;2023-01-04T09:36:37;101805.03;;;13.56;81.11
65685;BME280;52405;50.844;-1.062;2023-01-04T09:39:03;101809.53;;;13.60;80.44
65685;BME280;52405;50.844;-1.062;2023-01-04T09:41:34;101805.38;;;13.65;80.44
65685;BME280;52405;50.844;-1.062;2023-01-04T09:44:13;101816.72;;;13.65;80.38
65685;BME280;52405;50.844;-1.062;2023-01-04T09:52:10;101823.03;;;13.71;79.16
65685;BME280;52405;50.844;-1.062;2023-01-04T09:54:51;101822.19;;;13.72;79.15
65685;BME280;52405;50.844;-1.062;2023-01-04T09:57:27;101828.31;;;13.72;79.37
65685;BME280;52405;50.844;-1.062;2023-01-04T10:00:12;101823.97;;;13.73;79.51
65685;BME280;52405;50.844;-1.062;2023-01-04T10:05:13;101820.53;;;13.74;78.79
65685;BME280;52405;50.844;-1.062;2023-01-04T10:07:41;101830.22;;;13.76;79.17
65685;BME280;52405;50.844;-1.062;2023-01-04T10:10:15;101828.50;;;13.77;78.25
65685;BME280;52405;50.844;-1.062;2023-01-04T10:15:41;101838.16;;;13.79;78.39
65685;BME280;52405;50.844;-1.062;2023-01-04T10:18:52;101836.44;;;13.80;78.80
65685;BME280;52405;50.844;-1.062;2023-01-04T10:26:47;101851.38;;;13.82;78.15
65685;BME280;52405;50.844;-1.062;2023-01-04T10:32:03;101835.03;;;13.88;77.83
65685;BME280;52405;50.844;-1.062;2023-01-04T10:34:40;101841.28;;;13.92;78.46
65685;BME280;52405;50.844;-1.062;2023-01-04T10:37:17;101843.19;;;13.96;77.69
65685;BME280;52405;50.844;-1.062;2023-01-04T10:39:50;101838.84;;;13.96;77.98
65685;BME280;52405;50.844;-1.062;2023-01-04T10:42:37;101845.31;;;14.06;77.91
65685;BME280;52405;50.844;-1.062;2023-01-04T10:53:21;101811.53;;;14.11;77.20
65685;BME280;52405;50.844;-1.062;2023-01-04T10:58:42;101849.47;;;14.23;77.30
65685;BME280;52405;50.844;-1.062;2023-01-04T11:06:26;101841.84;;;14.28;76.34
65685;BME280;52405;50.844;-1.062;2023-01-04T11:09:02;101847.09;;;14.30;76.49
65685;BME280;52405;50.844;-1.062;2023-01-04T11:11:54;101843.53;;;14.27;76.45
65685;BME280;52405;50.844;-1.062;2023-01-04T11:14:23;101838.16;;;14.23;76.62
65685;BME280;52405;50.844;-1.062;2023-01-04T11:16:53;101833.75;;;14.22;76.23
65685;BME280;52405;50.844;-1.062;2023-01-04T11:19:19;101847.66;;;14.21;76.49
65685;BME280;52405;50.844;-1.062;2023-01-04T11:21:48;101836.22;;;14.19;76.44
65685;BME280;52405;50.844;-1.062;2023-01-04T11:24:16;101835.53;;;14.23;76.51
65685;BME280;52405;50.844;-1.062;2023-01-04T11:26:43;101843.44;;;14.24;75.70
65685;BME280;52405;50.844;-1.062;2023-01-04T11:32:33;101823.56;;;14.30;75.60
65685;BME280;52405;50.844;-1.062;2023-01-04T11:35:00;101827.19;;;14.33;76.08
65685;BME280;52405;50.844;-1.062;2023-01-04T11:42:52;101823.25;;;14.44;74.69
65685;BME280;52405;50.844;-1.062;2023-01-04T11:45:33;101832.84;;;14.44;74.53
65685;BME280;52405;50.844;-1.062;2023-01-04T11:47:59;101827.53;;;14.42;74.10
65685;BME280;52405;50.844;-1.062;2023-01-04T11:50:45;101839.72;;;14.42;74.44
65685;BME280;52405;50.844;-1.062;2023-01-04T11:53:23;101828.28;;;14.38;74.34
65685;BME280;52405;50.844;-1.062;2023-01-04T11:58:34;101842.78;;;14.30;73.90
65685;BME280;52405;50.844;-1.062;2023-01-04T12:01:00;101834.88;;;14.29;74.57
65685;BME280;52405;50.844;-1.062;2023-01-04T12:03:28;101838.38;;;14.29;74.07
65685;BME280;52405;50.844;-1.062;2023-01-04T12:05:58;101824.22;;;14.24;74.27
65685;BME280;52405;50.844;-1.062;2023-01-04T12:08:31;101833.88;;;14.25;74.34
65685;BME280;52405;50.844;-1.062;2023-01-04T12:11:00;101814.34;;;14.15;74.26
65685;BME280;52405;50.844;-1.062;2023-01-04T12:13:27;101824.91;;;14.18;74.34
65685;BME280;52405;50.844;-1.062;2023-01-04T12:18:42;101818.56;;;14.12;73.92
65685;BME280;52405;50.844;-1.062;2023-01-04T12:21:23;101846.59;;;14.16;74.08
65685;BME280;52405;50.844;-1.062;2023-01-04T12:23:53;101836.94;;;14.15;74.45
65685;BME280;52405;50.844;-1.062;2023-01-04T12:26:22;101831.66;;;14.13;73.94
65685;BME280;52405;50.844;-1.062;2023-01-04T12:29:31;101830.78;;;14.13;74.07
65685;BME280;52405;50.844;-1.062;2023-01-04T12:31:39;101823.78;;;14.12;74.34
65685;BME280;52405;50.844;-1.062;2023-01-04T12:36:56;101837.47;;;14.06;73.97
65685;BME280;52405;50.844;-1.062;2023-01-04T12:50:11;101817.28;;;14.02;74.62
65685;BME280;52405;50.844;-1.062;2023-01-04T12:52:42;101826.78;;;14.00;74.86
65685;BME280;52405;50.844;-1.062;2023-01-04T12:57:52;101829.34;;;13.98;74.50
65685;BME280;52405;50.844;-1.062;2023-01-04T13:00:20;101830.13;;;13.96;74.39
65685;BME280;52405;50.844;-1.062;2023-01-04T13:05:44;101800.81;;;13.80;74.75
65685;BME280;52405;50.844;-1.062;2023-01-04T13:08:12;101830.78;;;13.90;74.60
65685;BME280;52405;50.844;-1.062;2023-01-04T13:10:45;101813.00;;;13.81;74.89
65685;BME280;52405;50.844;-1.062;2023-01-04T13:18:43;101817.50;;;13.85;74.77
65685;BME280;52405;50.844;-1.062;2023-01-04T13:21:12;101811.34;;;13.83;74.88
65685;BME280;52405;50.844;-1.062;2023-01-04T13:23:39;101805.88;;;13.77;74.09
65685;BME280;52405;50.844;-1.062;2023-01-04T13:26:42;101815.50;;;13.78;74.51
65685;BME280;52405;50.844;-1.062;2023-01-04T13:32:02;101809.44;;;13.79;74.41
65685;BME280;52405;50.844;-1.062;2023-01-04T13:39:39;101823.22;;;13.75;74.99
65685;BME280;52405;50.844;-1.062;2023-01-04T13:42:11;101822.13;;;13.70;75.07
65685;BME280;52405;50.844;-1.062;2023-01-04T13:47:22;101835.19;;;13.70;74.98
65685;BME280;52405;50.844;-1.062;2023-01-04T13:49:48;101850.66;;;13.65;75.04
65685;BME280;52405;50.844;-1.062;2023-01-04T13:52:25;101832.06;;;13.58;74.84
65685;BME280;52405;50.844;-1.062;2023-01-04T13:57:54;101844.00;;;13.51;74.83
65685;BME280;52405;50.844;-1.062;2023-01-04T14:00:20;101831.75;;;13.50;74.99
65685;BME280;52405;50.844;-1.062;2023-01-04T14:02:57;101838.78;;;13.51;74.62
65685;BME280;52405;50.844;-1.062;2023-01-04T14:05:33;101834.19;;;13.45;74.97
65685;BME280;52405;50.844;-1.062;2023-01-04T14:07:59;101842.97;;;13.47;75.51
65685;BME280;52405;50.844;-1.062;2023-01-04T14:10:27;101840.38;;;13.47;75.14
65685;BME280;52405;50.844;-1.062;2023-01-04T14:12:55;101821.06;;;13.44;75.11
65685;BME280;52405;50.844;-1.062;2023-01-04T14:15:24;101777.50;;;13.22;74.68
65685;BME280;52405;50.844;-1.062;2023-01-04T14:17:55;101822.97;;;13.48;75.50
65685;BME280;52405;50.844;-1.062;2023-01-04T14:25:38;101817.06;;;13.31;75.00
65685;BME280;52405;50.844;-1.062;2023-01-04T14:38:46;101829.16;;;13.09;74.99
65685;BME280;52405;50.844;-1.062;2023-01-04T14:41:18;101826.41;;;13.06;75.85
65685;BME280;52405;50.844;-1.062;2023-01-04T14:44:07;101820.13;;;13.01;75.86
65685;BME280;52405;50.844;-1.062;2023-01-04T14:46:33;101815.50;;;12.96;76.07
65685;BME280;52405;50.844;-1.062;2023-01-04T14:48:59;101811.84;;;12.90;76.00
65685;BME280;52405;50.844;-1.062;2023-01-04T14:51:37;101810.88;;;12.88;76.16
65685;BME280;52405;50.844;-1.062;2023-01-04T14:54:06;101817.59;;;12.83;75.72
65685;BME280;52405;50.844;-1.062;2023-01-04T14:56:37;101811.44;;;12.81;76.54
65685;BME280;52405;50.844;-1.062;2023-01-04T14:59:03;101812.16;;;12.79;76.56
65685;BME280;52405;50.844;-1.062;2023-01-04T15:01:29;101810.25;;;12.75;76.44
65685;BME280;52405;50.844;-1.062;2023-01-04T15:03:54;101814.59;;;12.74;76.67
65685;BME280;52405;50.844;-1.062;2023-01-04T15:06:20;101801.06;;;12.63;76.64